156-й км Убкуа

Карта отелей и гостиниц, располагающихся рядом с аэропортом 156-й км Убкуа :

156-й км Убкуа Ханты-Мансийский автономный округ - Югра 59° 58' 5.52" N, 71° 2' 36.42" E
156-й км Убкуа Ханты-Мансийский автономный округ - Югра 59° 58' 5.52" N, 71° 2' 36.42" E
Код аэродрома ИКАО
HDW0
Код аэродрома RU
ХДВ0
Координаты
N59.96820° E071.04345°
Превышение над уровнем моря
80
Основная полоса
04/22
Курс магнитный
040,2/220,2
Длина основной ВПП
15
Ширина основной ВПП
15
Покрытие основной ВПП
Твёрдое
Освещение ВПП
Нет
Тип: 
Вертодром
Класс аэродрома: 
Принадлежность: 
ГА
Статус: 
Действующий
Сайт: 
E-mail аэродрома: 
Страна: 
Россия
Регион: 
Ханты-Мансийский автономный округ - Югра
Город: 
Дополнительная информация: 


Найти трансфер

С помощью этой формы Вы можете найти трансфер из аэропорта 156-й км Убкуа в город, аэропорт или вокзал:

Погода в аэропортах:

Авиационная погода в Белгороде

Регион: 
Погода METAR: 
UUOB 290730Z 20003MPS 9000 -SHRA BKN040CB 12/09 Q1016 R29/190065 NOSIG
Время наблюдения
2022-05-29T07:30:00Z
Температура C
12.0
Точка росы
9.0
Направление ветра
200
Скорость ветра (узлы)
6
Метео видимость
5.59
Облачность
BKN
Нижняя граница облачности (футы)
4000
Явления погоды
-SHRA
Условия полета
VFR
Аэропорт подробнее: 
BKN – значительная (рассеянная, разорванная) облачность;
-SHRA - слабый ливневой дождь;

Авиационная погода в Бухте Провидения

Погода METAR: 
UHMD 270400Z 18005MPS 6000 BCFG SCT006 02/00 Q1016 RMK QBB200 MT OBSC QFE761/1015
Время наблюдения
2022-05-27T04:00:00Z
Температура C
2.0
Точка росы
0.0
Направление ветра
180
Скорость ветра (узлы)
10
Метео видимость
3.73
Облачность
SCT
Нижняя граница облачности (футы)
600
Явления погоды
BCFG
Условия полета
MVFR
Аэропорт подробнее: 
SCT – разбросанная отдельная облачность;
FG – туман (небо не видно, температура воздуха выше нуля или ноль);

Авиационная погода в Витебске

Регион: 
Погода METAR: 
UMII 290800Z 21005G08MPS 8000 -SHRA SCT023 BKN035CB 12/05 Q1009 TEMPO 2100 BKN005
Время наблюдения
2022-05-29T08:00:00Z
Температура C
12.0
Точка росы
5.0
Направление ветра
210
Скорость ветра (узлы)
10
Метео видимость
4.97
Облачность
SCT
BKN
Нижняя граница облачности (футы)
2300
3500
Явления погоды
-SHRA
Условия полета
MVFR
SCT – разбросанная отдельная облачность; BKN – значительная (рассеянная, разорванная) облачность;
-SHRA - слабый ливневой дождь;

Авиационная погода в аэропорту Имени Германа Титова

Регион: 
Погода METAR: 
UNBB 290730Z 31007MPS 9999 -RA BKN040 16/13 Q1013 R24/190058 NOSIG RMK QFE738
Время наблюдения
2022-05-29T07:30:00Z
Температура C
16.0
Точка росы
13.0
Направление ветра
310
Скорость ветра (узлы)
14
Метео видимость
6.21
Облачность
BKN
Нижняя граница облачности (футы)
4000
Явления погоды
-RA
Условия полета
VFR
Аэропорт подробнее: 
BKN – значительная (рассеянная, разорванная) облачность;
-RA - слабый дождь;